sensor_id;sensor_type;location;lat;lon;timestamp;pressure;altitude;pressure_sealevel;temperature;humidity
6204;BME280;3135;42.602;23.468;2024-02-23T00:01:24;90579.97;;;-145.88;100.00
6204;BME280;3135;42.602;23.468;2024-02-23T00:03:52;90584.06;;;-145.88;100.00
6204;BME280;3135;42.602;23.468;2024-02-23T00:06:17;90592.25;;;-145.88;100.00
6204;BME280;3135;42.602;23.468;2024-02-23T00:08:43;90479.59;;;-145.88;100.00
6204;BME280;3135;42.602;23.468;2024-02-23T00:11:09;90551.28;;;-145.88;100.00
6204;BME280;3135;42.602;23.468;2024-02-23T00:13:35;91282.81;;;-145.88;100.00
6204;BME280;3135;42.602;23.468;2024-02-23T00:16:00;90489.81;;;-145.88;100.00
6204;BME280;3135;42.602;23.468;2024-02-23T00:18:25;90418.13;;;-145.88;100.00
6204;BME280;3135;42.602;23.468;2024-02-23T00:20:51;90477.53;;;-145.88;100.00
6204;BME280;3135;42.602;23.468;2024-02-23T00:23:16;90483.69;;;-145.88;100.00
6204;BME280;3135;42.602;23.468;2024-02-23T00:25:42;90450.91;;;-145.88;100.00
6204;BME280;3135;42.602;23.468;2024-02-23T00:28:08;90629.16;;;-145.88;100.00
6204;BME280;3135;42.602;23.468;2024-02-23T00:30:34;90563.59;;;-145.88;100.00
6204;BME280;3135;42.602;23.468;2024-02-23T00:32:59;90604.56;;;-145.88;100.00
6204;BME280;3135;42.602;23.468;2024-02-23T00:35:24;90567.69;;;-145.88;100.00
6204;BME280;3135;42.602;23.468;2024-02-23T00:37:50;90461.16;;;-145.88;100.00
6204;BME280;3135;42.602;23.468;2024-02-23T00:40:15;90848.38;;;-145.88;100.00
6204;BME280;3135;42.602;23.468;2024-02-23T00:42:41;90401.72;;;-145.88;100.00
6204;BME280;3135;42.602;23.468;2024-02-23T00:45:07;90577.94;;;-145.88;100.00
6204;BME280;3135;42.602;23.468;2024-02-23T00:47:32;90534.91;;;-145.88;100.00
6204;BME280;3135;42.602;23.468;2024-02-23T00:49:58;90498.03;;;-145.88;100.00
6204;BME280;3135;42.602;23.468;2024-02-23T00:52:24;90452.94;;;-145.88;100.00
6204;BME280;3135;42.602;23.468;2024-02-23T00:54:49;90485.72;;;-145.88;100.00
6204;BME280;3135;42.602;23.468;2024-02-23T00:57:14;90203.00;;;-145.88;100.00
6204;BME280;3135;42.602;23.468;2024-02-23T00:59:41;90543.09;;;-145.88;100.00
6204;BME280;3135;42.602;23.468;2024-02-23T01:02:06;90457.03;;;-145.88;100.00
6204;BME280;3135;42.602;23.468;2024-02-23T01:04:32;90559.50;;;-145.88;100.00
6204;BME280;3135;42.602;23.468;2024-02-23T01:06:58;91141.41;;;-145.88;100.00
6204;BME280;3135;42.602;23.468;2024-02-23T01:09:23;90491.88;;;-145.88;100.00
6204;BME280;3135;42.602;23.468;2024-02-23T01:11:49;90534.91;;;-145.88;100.00
6204;BME280;3135;42.602;23.468;2024-02-23T01:14:15;91065.59;;;-145.88;100.00
6204;BME280;3135;42.602;23.468;2024-02-23T01:16:40;90457.03;;;-145.88;100.00
6204;BME280;3135;42.602;23.468;2024-02-23T01:19:06;90588.16;;;-145.88;100.00
6204;BME280;3135;42.602;23.468;2024-02-23T01:21:31;90502.13;;;-145.88;100.00
6204;BME280;3135;42.602;23.468;2024-02-23T01:23:56;90596.38;;;-145.88;100.00
6204;BME280;3135;42.602;23.468;2024-02-23T01:26:23;90512.38;;;-145.88;100.00
6204;BME280;3135;42.602;23.468;2024-02-23T01:28:48;90579.97;;;-145.88;100.00
6204;BME280;3135;42.602;23.468;2024-02-23T01:31:14;90498.03;;;-145.88;100.00
6204;BME280;3135;42.602;23.468;2024-02-23T01:33:39;90569.72;;;-145.88;100.00
6204;BME280;3135;42.602;23.468;2024-02-23T01:36:05;90522.59;;;-145.88;100.00
6204;BME280;3135;42.602;23.468;2024-02-23T01:38:31;90500.06;;;-145.88;100.00
6204;BME280;3135;42.602;23.468;2024-02-23T01:40:58;90444.75;;;-145.88;100.00
6204;BME280;3135;42.602;23.468;2024-02-23T01:43:24;90500.06;;;-145.88;100.00
6204;BME280;3135;42.602;23.468;2024-02-23T01:45:49;90534.91;;;-145.88;100.00
6204;BME280;3135;42.602;23.468;2024-02-23T01:48:16;90588.16;;;-145.88;100.00
6204;BME280;3135;42.602;23.468;2024-02-23T01:50:42;90518.50;;;-145.88;100.00
6204;BME280;3135;42.602;23.468;2024-02-23T01:53:09;90534.91;;;-145.88;100.00
6204;BME280;3135;42.602;23.468;2024-02-23T01:55:36;90493.94;;;-145.88;100.00
6204;BME280;3135;42.602;23.468;2024-02-23T01:58:04;90430.41;;;-145.88;100.00
6204;BME280;3135;42.602;23.468;2024-02-23T02:00:30;90383.28;;;-145.88;100.00
6204;BME280;3135;42.602;23.468;2024-02-23T02:02:56;90325.94;;;-145.88;100.00
6204;BME280;3135;42.602;23.468;2024-02-23T02:05:22;90784.88;;;-145.88;100.00
6204;BME280;3135;42.602;23.468;2024-02-23T02:07:49;90477.53;;;-145.88;100.00
6204;BME280;3135;42.602;23.468;2024-02-23T02:10:20;90371.00;;;-145.88;100.00
6204;BME280;3135;42.602;23.468;2024-02-23T02:12:46;91073.78;;;-145.88;100.00
6204;BME280;3135;42.602;23.468;2024-02-23T02:15:11;91145.50;;;-145.88;100.00
6204;BME280;3135;42.602;23.468;2024-02-23T02:17:36;90287.00;;;-145.88;100.00
6204;BME280;3135;42.602;23.468;2024-02-23T02:20:03;90416.06;;;-145.88;100.00
6204;BME280;3135;42.602;23.468;2024-02-23T02:22:35;90313.63;;;-145.88;100.00
6204;BME280;3135;42.602;23.468;2024-02-23T02:25:00;90342.31;;;-145.88;100.00
6204;BME280;3135;42.602;23.468;2024-02-23T02:27:26;90327.97;;;-145.88;100.00
6204;BME280;3135;42.602;23.468;2024-02-23T02:29:51;90321.84;;;-145.88;100.00
6204;BME280;3135;42.602;23.468;2024-02-23T02:32:17;90293.16;;;-145.88;100.00
6204;BME280;3135;42.602;23.468;2024-02-23T02:34:42;90430.41;;;-145.88;100.00
6204;BME280;3135;42.602;23.468;2024-02-23T02:37:08;90469.34;;;-145.88;100.00
6204;BME280;3135;42.602;23.468;2024-02-23T02:39:33;90350.50;;;-145.88;100.00
6204;BME280;3135;42.602;23.468;2024-02-23T02:41:59;90420.16;;;-145.88;100.00
6204;BME280;3135;42.602;23.468;2024-02-23T02:44:24;90198.91;;;-145.88;100.00
6204;BME280;3135;42.602;23.468;2024-02-23T02:46:51;90309.53;;;-145.88;100.00
6204;BME280;3135;42.602;23.468;2024-02-23T02:49:17;90239.88;;;-145.88;100.00
6204;BME280;3135;42.602;23.468;2024-02-23T02:51:42;90407.88;;;-145.88;100.00
6204;BME280;3135;42.602;23.468;2024-02-23T02:54:08;90377.16;;;-145.88;100.00
6204;BME280;3135;42.602;23.468;2024-02-23T02:56:33;90354.63;;;-145.88;100.00
6204;BME280;3135;42.602;23.468;2024-02-23T02:58:59;90043.22;;;-145.88;100.00
6204;BME280;3135;42.602;23.468;2024-02-23T03:01:24;90534.91;;;-145.88;100.00
6204;BME280;3135;42.602;23.468;2024-02-23T03:03:50;90461.16;;;-145.88;100.00
6204;BME280;3135;42.602;23.468;2024-02-23T03:06:15;90422.22;;;-145.88;100.00
6204;BME280;3135;42.602;23.468;2024-02-23T03:08:43;90442.72;;;-145.88;100.00
6204;BME280;3135;42.602;23.468;2024-02-23T03:11:09;90414.03;;;-145.88;100.00
6204;BME280;3135;42.602;23.468;2024-02-23T03:13:35;90332.06;;;-145.88;100.00
6204;BME280;3135;42.602;23.468;2024-02-23T03:16:00;90350.50;;;-145.88;100.00
6204;BME280;3135;42.602;23.468;2024-02-23T03:18:25;90731.59;;;-145.88;100.00
6204;BME280;3135;42.602;23.468;2024-02-23T03:20:53;90414.03;;;-145.88;100.00
6204;BME280;3135;42.602;23.468;2024-02-23T03:23:19;90518.50;;;-145.88;100.00
6204;BME280;3135;42.602;23.468;2024-02-23T03:25:44;90219.41;;;-145.88;100.00
6204;BME280;3135;42.602;23.468;2024-02-23T03:28:09;90278.81;;;-145.88;100.00
6204;BME280;3135;42.602;23.468;2024-02-23T03:30:35;90157.94;;;-145.88;100.00
6204;BME280;3135;42.602;23.468;2024-02-23T03:33:00;90250.13;;;-145.88;100.00
6204;BME280;3135;42.602;23.468;2024-02-23T03:35:26;90182.53;;;-145.88;100.00
6204;BME280;3135;42.602;23.468;2024-02-23T03:37:51;90381.25;;;-145.88;100.00
6204;BME280;3135;42.602;23.468;2024-02-23T03:40:17;90196.88;;;-145.88;100.00
6204;BME280;3135;42.602;23.468;2024-02-23T03:42:44;90377.16;;;-145.88;100.00
6204;BME280;3135;42.602;23.468;2024-02-23T03:45:10;90182.53;;;-145.88;100.00
6204;BME280;3135;42.602;23.468;2024-02-23T03:47:35;90479.59;;;-145.88;100.00
6204;BME280;3135;42.602;23.468;2024-02-23T03:50:01;90448.84;;;-145.88;100.00
6204;BME280;3135;42.602;23.468;2024-02-23T03:52:26;90409.94;;;-145.88;100.00
6204;BME280;3135;42.602;23.468;2024-02-23T03:54:51;90477.53;;;-145.88;100.00
6204;BME280;3135;42.602;23.468;2024-02-23T03:57:19;90395.59;;;-145.88;100.00
6204;BME280;3135;42.602;23.468;2024-02-23T03:59:52;90395.59;;;-145.88;100.00
6204;BME280;3135;42.602;23.468;2024-02-23T04:02:17;90411.97;;;-145.88;100.00
6204;BME280;3135;42.602;23.468;2024-02-23T04:04:43;90371.00;;;-145.88;100.00
6204;BME280;3135;42.602;23.468;2024-02-23T04:07:08;90391.50;;;-145.88;100.00
6204;BME280;3135;42.602;23.468;2024-02-23T04:09:34;90317.72;;;-145.88;100.00
6204;BME280;3135;42.602;23.468;2024-02-23T04:11:59;90424.25;;;-145.88;100.00
6204;BME280;3135;42.602;23.468;2024-02-23T04:14:25;90424.25;;;-145.88;100.00
6204;BME280;3135;42.602;23.468;2024-02-23T04:16:50;90452.94;;;-145.88;100.00
6204;BME280;3135;42.602;23.468;2024-02-23T04:19:15;90358.72;;;-145.88;100.00
6204;BME280;3135;42.602;23.468;2024-02-23T04:21:41;90416.06;;;-145.88;100.00
6204;BME280;3135;42.602;23.468;2024-02-23T04:24:06;90434.50;;;-145.88;100.00
6204;BME280;3135;42.602;23.468;2024-02-23T04:26:34;90500.06;;;-145.88;100.00
6204;BME280;3135;42.602;23.468;2024-02-23T04:28:59;90565.63;;;-145.88;100.00
6204;BME280;3135;42.602;23.468;2024-02-23T04:31:24;90500.06;;;-145.88;100.00
6204;BME280;3135;42.602;23.468;2024-02-23T04:33:50;90452.94;;;-145.88;100.00
6204;BME280;3135;42.602;23.468;2024-02-23T04:36:19;90539.00;;;-145.88;100.00
6204;BME280;3135;42.602;23.468;2024-02-23T04:38:45;90547.19;;;-145.88;100.00
6204;BME280;3135;42.602;23.468;2024-02-23T04:41:10;90430.41;;;-145.88;100.00
6204;BME280;3135;42.602;23.468;2024-02-23T04:43:35;90350.50;;;-145.88;100.00
6204;BME280;3135;42.602;23.468;2024-02-23T04:46:01;90512.38;;;-145.88;100.00
6204;BME280;3135;42.602;23.468;2024-02-23T04:48:26;90916.00;;;-145.88;100.00
6204;BME280;3135;42.602;23.468;2024-02-23T04:50:52;90528.75;;;-145.88;100.00
6204;BME280;3135;42.602;23.468;2024-02-23T04:53:17;90457.03;;;-145.88;100.00
6204;BME280;3135;42.602;23.468;2024-02-23T04:55:43;90536.94;;;-145.88;100.00
6204;BME280;3135;42.602;23.468;2024-02-23T04:58:08;90465.25;;;-145.88;100.00
6204;BME280;3135;42.602;23.468;2024-02-23T05:00:34;90522.59;;;-145.88;100.00
6204;BME280;3135;42.602;23.468;2024-02-23T05:03:00;91213.13;;;-145.88;100.00
6204;BME280;3135;42.602;23.468;2024-02-23T05:05:28;91262.31;;;-145.88;100.00
6204;BME280;3135;42.602;23.468;2024-02-23T05:07:53;90502.13;;;-145.88;100.00
6204;BME280;3135;42.602;23.468;2024-02-23T05:10:19;90588.16;;;-145.88;100.00
6204;BME280;3135;42.602;23.468;2024-02-23T05:12:44;90498.03;;;-145.88;100.00
6204;BME280;3135;42.602;23.468;2024-02-23T05:15:10;90590.22;;;-145.88;100.00
6204;BME280;3135;42.602;23.468;2024-02-23T05:17:35;90534.91;;;-145.88;100.00
6204;BME280;3135;42.602;23.468;2024-02-23T05:20:01;91356.56;;;-145.88;100.00
6204;BME280;3135;42.602;23.468;2024-02-23T05:22:31;90461.16;;;-145.88;100.00
6204;BME280;3135;42.602;23.468;2024-02-23T05:24:57;90524.66;;;-145.88;100.00
6204;BME280;3135;42.602;23.468;2024-02-23T05:27:22;91196.72;;;-145.88;100.00
6204;BME280;3135;42.602;23.468;2024-02-23T05:29:48;90661.94;;;-145.88;100.00
6204;BME280;3135;42.602;23.468;2024-02-23T05:32:13;90432.47;;;-145.88;100.00
6204;BME280;3135;42.602;23.468;2024-02-23T05:34:39;91237.72;;;-145.88;100.00
6204;BME280;3135;42.602;23.468;2024-02-23T05:37:04;90629.16;;;-145.88;100.00
6204;BME280;3135;42.602;23.468;2024-02-23T05:39:30;90541.03;;;-145.88;100.00
6204;BME280;3135;42.602;23.468;2024-02-23T05:41:56;90539.00;;;-145.88;100.00
6204;BME280;3135;42.602;23.468;2024-02-23T05:44:24;90514.41;;;-145.88;100.00
6204;BME280;3135;42.602;23.468;2024-02-23T05:46:49;90493.94;;;-145.88;100.00
6204;BME280;3135;42.602;23.468;2024-02-23T05:49:15;90555.38;;;-145.88;100.00
6204;BME280;3135;42.602;23.468;2024-02-23T05:51:40;90872.97;;;-145.88;100.00
6204;BME280;3135;42.602;23.468;2024-02-23T05:54:06;90498.03;;;-145.88;100.00
6204;BME280;3135;42.602;23.468;2024-02-23T05:56:31;90579.97;;;-145.88;100.00
6204;BME280;3135;42.602;23.468;2024-02-23T05:58:56;90516.47;;;-145.88;100.00
6204;BME280;3135;42.602;23.468;2024-02-23T06:01:22;90571.78;;;-145.88;100.00
6204;BME280;3135;42.602;23.468;2024-02-23T06:03:47;90534.91;;;-145.88;100.00
6204;BME280;3135;42.602;23.468;2024-02-23T06:06:13;90592.25;;;-145.88;100.00
6204;BME280;3135;42.602;23.468;2024-02-23T06:08:39;90444.75;;;-145.88;100.00
6204;BME280;3135;42.602;23.468;2024-02-23T06:11:04;90438.59;;;-145.88;100.00
6204;BME280;3135;42.602;23.468;2024-02-23T06:13:30;90366.91;;;-145.88;100.00
6204;BME280;3135;42.602;23.468;2024-02-23T06:15:56;90551.28;;;-145.88;100.00
6204;BME280;3135;42.602;23.468;2024-02-23T06:18:21;90168.19;;;-145.88;100.00
6204;BME280;3135;42.602;23.468;2024-02-23T06:20:48;90543.09;;;-145.88;100.00
6204;BME280;3135;42.602;23.468;2024-02-23T06:23:14;90403.78;;;-145.88;100.00
6204;BME280;3135;42.602;23.468;2024-02-23T06:25:39;90475.47;;;-145.88;100.00
6204;BME280;3135;42.602;23.468;2024-02-23T06:28:05;90373.06;;;-145.88;100.00
6204;BME280;3135;42.602;23.468;2024-02-23T06:30:31;90461.16;;;-145.88;100.00
6204;BME280;3135;42.602;23.468;2024-02-23T06:32:57;90327.97;;;-145.88;100.00
6204;BME280;3135;42.602;23.468;2024-02-23T06:35:23;90510.31;;;-145.88;100.00
6204;BME280;3135;42.602;23.468;2024-02-23T06:37:48;90534.91;;;-145.88;100.00
6204;BME280;3135;42.602;23.468;2024-02-23T06:40:14;90317.72;;;-145.88;100.00
6204;BME280;3135;42.602;23.468;2024-02-23T06:42:39;90502.13;;;-145.88;100.00
6204;BME280;3135;42.602;23.468;2024-02-23T06:45:05;90231.69;;;-145.88;100.00
6204;BME280;3135;42.602;23.468;2024-02-23T06:47:33;90416.06;;;-145.88;100.00
6204;BME280;3135;42.602;23.468;2024-02-23T06:49:59;90444.75;;;-145.88;100.00
6204;BME280;3135;42.602;23.468;2024-02-23T06:52:25;90459.09;;;-145.88;100.00
6204;BME280;3135;42.602;23.468;2024-02-23T06:54:51;90407.88;;;-145.88;100.00
6204;BME280;3135;42.602;23.468;2024-02-23T06:57:17;90498.03;;;-145.88;100.00
6204;BME280;3135;42.602;23.468;2024-02-23T06:59:43;90295.19;;;-145.88;100.00
6204;BME280;3135;42.602;23.468;2024-02-23T07:02:08;90452.94;;;-145.88;100.00
6204;BME280;3135;42.602;23.468;2024-02-23T07:04:34;90313.63;;;-145.88;100.00
6204;BME280;3135;42.602;23.468;2024-02-23T07:06:59;90477.53;;;-145.88;100.00
6204;BME280;3135;42.602;23.468;2024-02-23T07:09:31;90426.31;;;-145.88;100.00
6204;BME280;3135;42.602;23.468;2024-02-23T07:11:57;90373.06;;;-145.88;100.00
6204;BME280;3135;42.602;23.468;2024-02-23T07:14:22;90387.38;;;-145.88;100.00
6204;BME280;3135;42.602;23.468;2024-02-23T07:16:47;90350.50;;;-145.88;100.00
6204;BME280;3135;42.602;23.468;2024-02-23T07:19:13;89924.41;;;-145.88;100.00
6204;BME280;3135;42.602;23.468;2024-02-23T07:21:38;90293.16;;;-145.88;100.00
6204;BME280;3135;42.602;23.468;2024-02-23T07:24:04;90272.66;;;-145.88;100.00
6204;BME280;3135;42.602;23.468;2024-02-23T07:26:29;90309.53;;;-145.88;100.00
6204;BME280;3135;42.602;23.468;2024-02-23T07:28:55;90307.50;;;-145.88;100.00
6204;BME280;3135;42.602;23.468;2024-02-23T07:31:21;90375.09;;;-145.88;100.00
6204;BME280;3135;42.602;23.468;2024-02-23T07:33:46;90250.13;;;-145.88;100.00
6204;BME280;3135;42.602;23.468;2024-02-23T07:36:16;90287.00;;;-145.88;100.00
6204;BME280;3135;42.602;23.468;2024-02-23T07:38:42;90321.84;;;-145.88;100.00
6204;BME280;3135;42.602;23.468;2024-02-23T07:41:10;90164.09;;;-145.88;100.00
6204;BME280;3135;42.602;23.468;2024-02-23T07:43:35;90291.09;;;-145.88;100.00
6204;BME280;3135;42.602;23.468;2024-02-23T07:46:01;91231.56;;;-145.88;100.00
6204;BME280;3135;42.602;23.468;2024-02-23T07:48:27;90981.56;;;-145.88;100.00
6204;BME280;3135;42.602;23.468;2024-02-23T07:50:53;90305.44;;;-145.88;100.00
6204;BME280;3135;42.602;23.468;2024-02-23T07:53:18;90342.31;;;-145.88;100.00
6204;BME280;3135;42.602;23.468;2024-02-23T07:55:44;90192.75;;;-145.88;100.00
6204;BME280;3135;42.602;23.468;2024-02-23T07:58:09;90203.00;;;-145.88;100.00
6204;BME280;3135;42.602;23.468;2024-02-23T08:00:35;90303.41;;;-145.88;100.00
6204;BME280;3135;42.602;23.468;2024-02-23T08:03:03;90243.97;;;-145.88;100.00
6204;BME280;3135;42.602;23.468;2024-02-23T08:05:28;90381.25;;;-145.88;100.00
6204;BME280;3135;42.602;23.468;2024-02-23T08:07:54;90315.69;;;-145.88;100.00
6204;BME280;3135;42.602;23.468;2024-02-23T08:10:19;90239.88;;;-145.88;100.00
6204;BME280;3135;42.602;23.468;2024-02-23T08:12:46;90194.81;;;-145.88;100.00
6204;BME280;3135;42.602;23.468;2024-02-23T08:15:12;90272.66;;;-145.88;100.00
6204;BME280;3135;42.602;23.468;2024-02-23T08:17:37;90198.91;;;-145.88;100.00
6204;BME280;3135;42.602;23.468;2024-02-23T08:20:03;90182.53;;;-145.88;100.00
6204;BME280;3135;42.602;23.468;2024-02-23T08:22:29;89910.06;;;-145.88;100.00
6204;BME280;3135;42.602;23.468;2024-02-23T08:24:55;90157.94;;;-145.88;100.00
6204;BME280;3135;42.602;23.468;2024-02-23T08:27:20;90661.94;;;-145.88;100.00
6204;BME280;3135;42.602;23.468;2024-02-23T08:29:46;90198.91;;;-145.88;100.00
6204;BME280;3135;42.602;23.468;2024-02-23T08:32:11;90203.00;;;-145.88;100.00
6204;BME280;3135;42.602;23.468;2024-02-23T08:34:39;90223.50;;;-145.88;100.00
6204;BME280;3135;42.602;23.468;2024-02-23T08:37:04;90149.75;;;-145.88;100.00
6204;BME280;3135;42.602;23.468;2024-02-23T08:39:30;90121.06;;;-145.88;100.00
6204;BME280;3135;42.602;23.468;2024-02-23T08:41:55;90145.66;;;-145.88;100.00
6204;BME280;3135;42.602;23.468;2024-02-23T08:44:20;90092.38;;;-145.88;100.00
6204;BME280;3135;42.602;23.468;2024-02-23T08:46:47;90047.31;;;-145.88;100.00
6204;BME280;3135;42.602;23.468;2024-02-23T08:49:13;90000.19;;;-145.88;100.00
6204;BME280;3135;42.602;23.468;2024-02-23T08:51:39;90424.25;;;-145.88;100.00
6204;BME280;3135;42.602;23.468;2024-02-23T08:54:05;89936.69;;;-145.88;100.00
6204;BME280;3135;42.602;23.468;2024-02-23T08:56:31;90039.13;;;-145.88;100.00
6204;BME280;3135;42.602;23.468;2024-02-23T08:58:58;90010.44;;;-145.88;100.00
6204;BME280;3135;42.602;23.468;2024-02-23T09:01:23;89824.03;;;-145.88;100.00
6204;BME280;3135;42.602;23.468;2024-02-23T09:04:28;90028.88;;;-145.88;100.00
6204;BME280;3135;42.602;23.468;2024-02-23T09:07:02;89998.16;;;-145.88;100.00
6204;BME280;3135;42.602;23.468;2024-02-23T09:09:59;89928.50;;;-145.88;100.00
6204;BME280;3135;42.602;23.468;2024-02-23T09:12:26;89912.13;;;-145.88;100.00
6204;BME280;3135;42.602;23.468;2024-02-23T09:14:58;89893.69;;;-145.88;100.00
6204;BME280;3135;42.602;23.468;2024-02-23T09:17:28;90559.50;;;-145.88;100.00
6204;BME280;3135;42.602;23.468;2024-02-23T09:19:54;89891.63;;;-145.88;100.00
6204;BME280;3135;42.602;23.468;2024-02-23T09:22:21;89719.56;;;-145.88;100.00
6204;BME280;3135;42.602;23.468;2024-02-23T09:24:47;89723.66;;;-145.88;100.00
6204;BME280;3135;42.602;23.468;2024-02-23T09:27:13;89768.72;;;-145.88;100.00
6204;BME280;3135;42.602;23.468;2024-02-23T09:29:40;89735.97;;;-145.88;100.00
6204;BME280;3135;42.602;23.468;2024-02-23T09:32:06;89662.22;;;-145.88;100.00
6204;BME280;3135;42.602;23.468;2024-02-23T09:34:31;89742.09;;;-145.88;100.00
6204;BME280;3135;42.602;23.468;2024-02-23T09:36:57;89813.78;;;-145.88;100.00
6204;BME280;3135;42.602;23.468;2024-02-23T09:39:22;89699.09;;;-145.88;100.00
6204;BME280;3135;42.602;23.468;2024-02-23T09:41:50;89772.81;;;-145.88;100.00
6204;BME280;3135;42.602;23.468;2024-02-23T09:44:17;89797.41;;;-145.88;100.00
6204;BME280;3135;42.602;23.468;2024-02-23T09:46:43;89703.19;;;-145.88;100.00
6204;BME280;3135;42.602;23.468;2024-02-23T09:49:11;89692.94;;;-145.88;100.00
6204;BME280;3135;42.602;23.468;2024-02-23T09:51:38;89529.09;;;-145.88;100.00
6204;BME280;3135;42.602;23.468;2024-02-23T09:54:04;89690.91;;;-145.88;100.00
6204;BME280;3135;42.602;23.468;2024-02-23T09:56:30;89707.28;;;-145.88;100.00
6204;BME280;3135;42.602;23.468;2024-02-23T09:58:57;89731.84;;;-145.88;100.00
6204;BME280;3135;42.602;23.468;2024-02-23T10:01:28;89658.13;;;-145.88;100.00
6204;BME280;3135;42.602;23.468;2024-02-23T10:03:57;89715.47;;;-145.88;100.00
6204;BME280;3135;42.602;23.468;2024-02-23T10:06:24;89680.66;;;-145.88;100.00
6204;BME280;3135;42.602;23.468;2024-02-23T10:08:50;89561.84;;;-145.88;100.00
6204;BME280;3135;42.602;23.468;2024-02-23T10:11:19;89379.56;;;-145.88;100.00
6204;BME280;3135;42.602;23.468;2024-02-23T10:13:47;89594.63;;;-145.88;100.00
6204;BME280;3135;42.602;23.468;2024-02-23T10:16:15;89580.28;;;-145.88;100.00
6204;BME280;3135;42.602;23.468;2024-02-23T10:18:40;89645.84;;;-145.88;100.00
6204;BME280;3135;42.602;23.468;2024-02-23T10:21:06;90149.75;;;-145.88;100.00
6204;BME280;3135;42.602;23.468;2024-02-23T10:23:31;89629.44;;;-145.88;100.00
6204;BME280;3135;42.602;23.468;2024-02-23T10:25:57;89584.38;;;-145.88;99.95
6204;BME280;3135;42.602;23.468;2024-02-23T10:28:22;89633.53;;;-145.88;100.00
6204;BME280;3135;42.602;23.468;2024-02-23T10:30:48;89621.25;;;-145.88;99.88
6204;BME280;3135;42.602;23.468;2024-02-23T10:33:14;89537.28;;;-145.88;99.95
6204;BME280;3135;42.602;23.468;2024-02-23T10:35:40;89527.03;;;-145.88;97.44
6204;BME280;3135;42.602;23.468;2024-02-23T10:38:08;89457.41;;;-145.88;100.00
6204;BME280;3135;42.602;23.468;2024-02-23T10:40:39;89172.72;;;-145.88;98.22
6204;BME280;3135;42.602;23.468;2024-02-23T10:43:12;89400.03;;;-145.88;95.66
6204;BME280;3135;42.602;23.468;2024-02-23T10:45:39;89572.09;;;-145.88;97.31
6204;BME280;3135;42.602;23.468;2024-02-23T10:48:07;89572.09;;;-145.88;96.77
6204;BME280;3135;42.602;23.468;2024-02-23T10:50:35;89664.25;;;-145.88;97.94
6204;BME280;3135;42.602;23.468;2024-02-23T10:53:01;89654.03;;;-145.88;96.46
6204;BME280;3135;42.602;23.468;2024-02-23T10:55:29;89574.16;;;-145.88;95.83
6204;BME280;3135;42.602;23.468;2024-02-23T10:57:58;89557.75;;;-145.88;95.73
6204;BME280;3135;42.602;23.468;2024-02-23T11:00:24;89598.72;;;-145.88;93.91
6204;BME280;3135;42.602;23.468;2024-02-23T11:02:52;89555.72;;;-145.88;94.37
6204;BME280;3135;42.602;23.468;2024-02-23T11:05:19;89547.50;;;-145.88;94.61
6204;BME280;3135;42.602;23.468;2024-02-23T11:07:48;89633.53;;;-145.88;95.53
6204;BME280;3135;42.602;23.468;2024-02-23T11:10:17;89662.22;;;-145.88;97.71
6204;BME280;3135;42.602;23.468;2024-02-23T11:12:44;89695.00;;;-145.88;97.41
6204;BME280;3135;42.602;23.468;2024-02-23T11:15:26;89795.38;;;-145.88;96.80
6204;BME280;3135;42.602;23.468;2024-02-23T11:17:51;89645.84;;;-145.88;96.75
6204;BME280;3135;42.602;23.468;2024-02-23T11:20:17;89670.41;;;-145.88;95.69
6204;BME280;3135;42.602;23.468;2024-02-23T11:22:42;89631.50;;;-145.88;95.44
6204;BME280;3135;42.602;23.468;2024-02-23T11:25:08;89576.19;;;-145.88;95.48
6204;BME280;3135;42.602;23.468;2024-02-23T11:27:35;89654.03;;;-145.88;96.23
6204;BME280;3135;42.602;23.468;2024-02-23T11:30:06;89611.00;;;-145.88;94.56
6204;BME280;3135;42.602;23.468;2024-02-23T11:32:47;89541.38;;;-145.88;96.14
6204;BME280;3135;42.602;23.468;2024-02-23T11:35:15;89320.16;;;-145.88;95.20
6204;BME280;3135;42.602;23.468;2024-02-23T11:40:13;89535.22;;;-145.88;94.75
6204;BME280;3135;42.602;23.468;2024-02-23T11:42:41;89469.69;;;-145.88;94.29
6204;BME280;3135;42.602;23.468;2024-02-23T11:45:07;89555.72;;;-145.88;94.14
6204;BME280;3135;42.602;23.468;2024-02-23T11:47:32;89518.84;;;-145.88;93.94
6204;BME280;3135;42.602;23.468;2024-02-23T11:49:58;89533.19;;;-145.88;94.71
6204;BME280;3135;42.602;23.468;2024-02-23T11:52:23;89492.22;;;-145.88;92.83
6204;BME280;3135;42.602;23.468;2024-02-23T11:54:48;90184.56;;;-145.88;94.76
6204;BME280;3135;42.602;23.468;2024-02-23T11:57:14;89424.63;;;-145.88;95.61
6204;BME280;3135;42.602;23.468;2024-02-23T11:59:40;89463.53;;;-145.88;91.72
6204;BME280;3135;42.602;23.468;2024-02-23T12:02:06;89520.88;;;-145.88;92.57
6204;BME280;3135;42.602;23.468;2024-02-23T12:04:32;89467.63;;;-145.88;92.27
6204;BME280;3135;42.602;23.468;2024-02-23T12:06:58;89475.84;;;-145.88;93.29
6204;BME280;3135;42.602;23.468;2024-02-23T12:09:24;89504.50;;;-145.88;93.02
6204;BME280;3135;42.602;23.468;2024-02-23T12:11:49;89592.56;;;-145.88;91.83
6204;BME280;3135;42.602;23.468;2024-02-23T12:14:15;89555.72;;;-145.88;92.83
6204;BME280;3135;42.602;23.468;2024-02-23T12:16:41;89862.97;;;-145.88;92.75
6204;BME280;3135;42.602;23.468;2024-02-23T12:19:08;89498.34;;;-145.88;92.70
6204;BME280;3135;42.602;23.468;2024-02-23T12:21:34;89365.22;;;-145.88;91.01
6204;BME280;3135;42.602;23.468;2024-02-23T12:24:04;89525.00;;;-145.88;90.76
6204;BME280;3135;42.602;23.468;2024-02-23T12:26:31;89848.63;;;-145.88;93.65
6204;BME280;3135;42.602;23.468;2024-02-23T12:29:03;89461.50;;;-145.88;92.13
6204;BME280;3135;42.602;23.468;2024-02-23T12:31:28;89434.88;;;-145.88;91.35
6204;BME280;3135;42.602;23.468;2024-02-23T12:33:57;89467.63;;;-145.88;90.69
6204;BME280;3135;42.602;23.468;2024-02-23T12:36:22;89402.09;;;-145.88;91.04
6204;BME280;3135;42.602;23.468;2024-02-23T12:38:48;89408.25;;;-145.88;90.63
6204;BME280;3135;42.602;23.468;2024-02-23T12:41:13;89529.09;;;-145.88;91.41